sensor_id;sensor_type;location;lat;lon;timestamp;temperature;humidity
13898;DHT22;7019;50.766;4.474;2022-12-07T00:01:06;4.20;99.90
13898;DHT22;7019;50.766;4.474;2022-12-07T00:03:35;4.20;99.90
13898;DHT22;7019;50.766;4.474;2022-12-07T00:06:03;4.20;99.90
13898;DHT22;7019;50.766;4.474;2022-12-07T00:08:31;4.10;99.90
13898;DHT22;7019;50.766;4.474;2022-12-07T00:11:01;4.10;99.90
13898;DHT22;7019;50.766;4.474;2022-12-07T00:13:29;4.00;99.90
13898;DHT22;7019;50.766;4.474;2022-12-07T00:15:59;3.90;99.90
13898;DHT22;7019;50.766;4.474;2022-12-07T00:18:26;3.80;99.90
13898;DHT22;7019;50.766;4.474;2022-12-07T00:20:59;3.70;99.90
13898;DHT22;7019;50.766;4.474;2022-12-07T00:23:26;3.60;99.90
13898;DHT22;7019;50.766;4.474;2022-12-07T00:25:53;3.60;99.90
13898;DHT22;7019;50.766;4.474;2022-12-07T00:28:20;3.60;99.90
13898;DHT22;7019;50.766;4.474;2022-12-07T00:30:47;3.60;99.90
13898;DHT22;7019;50.766;4.474;2022-12-07T00:33:14;3.50;99.90
13898;DHT22;7019;50.766;4.474;2022-12-07T00:35:41;3.50;99.90
13898;DHT22;7019;50.766;4.474;2022-12-07T00:38:10;3.40;99.90
13898;DHT22;7019;50.766;4.474;2022-12-07T00:40:37;3.30;99.90
13898;DHT22;7019;50.766;4.474;2022-12-07T00:43:04;3.30;99.90
13898;DHT22;7019;50.766;4.474;2022-12-07T00:45:31;3.20;99.90
13898;DHT22;7019;50.766;4.474;2022-12-07T00:47:58;3.20;99.90
13898;DHT22;7019;50.766;4.474;2022-12-07T00:50:25;3.10;99.90
13898;DHT22;7019;50.766;4.474;2022-12-07T00:52:52;3.20;99.90
13898;DHT22;7019;50.766;4.474;2022-12-07T00:55:20;3.20;99.90
13898;DHT22;7019;50.766;4.474;2022-12-07T00:57:47;3.10;99.90
13898;DHT22;7019;50.766;4.474;2022-12-07T01:00:15;3.10;99.90
13898;DHT22;7019;50.766;4.474;2022-12-07T01:02:42;3.10;99.90
13898;DHT22;7019;50.766;4.474;2022-12-07T01:05:09;3.10;99.90
13898;DHT22;7019;50.766;4.474;2022-12-07T01:07:36;3.10;99.90
13898;DHT22;7019;50.766;4.474;2022-12-07T01:10:04;3.10;99.90
13898;DHT22;7019;50.766;4.474;2022-12-07T01:12:33;3.00;99.90
13898;DHT22;7019;50.766;4.474;2022-12-07T01:15:00;3.00;99.90
13898;DHT22;7019;50.766;4.474;2022-12-07T01:17:28;2.90;99.90
13898;DHT22;7019;50.766;4.474;2022-12-07T01:19:55;2.90;99.90
13898;DHT22;7019;50.766;4.474;2022-12-07T01:22:23;2.80;99.90
13898;DHT22;7019;50.766;4.474;2022-12-07T01:24:50;2.80;99.90
13898;DHT22;7019;50.766;4.474;2022-12-07T01:27:17;2.90;99.90
13898;DHT22;7019;50.766;4.474;2022-12-07T01:29:45;3.00;99.90
13898;DHT22;7019;50.766;4.474;2022-12-07T01:32:12;3.10;99.90
13898;DHT22;7019;50.766;4.474;2022-12-07T01:34:39;3.20;99.90
13898;DHT22;7019;50.766;4.474;2022-12-07T01:37:07;3.30;99.90
13898;DHT22;7019;50.766;4.474;2022-12-07T01:39:34;3.30;99.90
13898;DHT22;7019;50.766;4.474;2022-12-07T01:42:01;3.40;99.90
13898;DHT22;7019;50.766;4.474;2022-12-07T01:44:29;3.40;99.90
13898;DHT22;7019;50.766;4.474;2022-12-07T01:47:00;3.50;99.90
13898;DHT22;7019;50.766;4.474;2022-12-07T01:49:31;3.50;99.90
13898;DHT22;7019;50.766;4.474;2022-12-07T01:52:04;3.50;99.90
13898;DHT22;7019;50.766;4.474;2022-12-07T01:54:36;3.50;99.90
13898;DHT22;7019;50.766;4.474;2022-12-07T01:57:05;3.50;99.90
13898;DHT22;7019;50.766;4.474;2022-12-07T01:59:33;3.60;99.90
13898;DHT22;7019;50.766;4.474;2022-12-07T02:02:05;3.60;99.90
13898;DHT22;7019;50.766;4.474;2022-12-07T02:04:36;3.60;99.90
13898;DHT22;7019;50.766;4.474;2022-12-07T02:07:03;3.60;99.90
13898;DHT22;7019;50.766;4.474;2022-12-07T02:09:32;3.60;99.90
13898;DHT22;7019;50.766;4.474;2022-12-07T02:11:59;3.60;99.90
13898;DHT22;7019;50.766;4.474;2022-12-07T02:14:26;3.50;99.90
13898;DHT22;7019;50.766;4.474;2022-12-07T02:22:57;3.50;99.90
13898;DHT22;7019;50.766;4.474;2022-12-07T02:25:44;3.50;99.90
13898;DHT22;7019;50.766;4.474;2022-12-07T02:28:22;3.50;99.90
13898;DHT22;7019;50.766;4.474;2022-12-07T02:30:58;3.50;99.90
13898;DHT22;7019;50.766;4.474;2022-12-07T02:33:31;3.50;99.90
13898;DHT22;7019;50.766;4.474;2022-12-07T02:36:04;3.50;99.90
13898;DHT22;7019;50.766;4.474;2022-12-07T02:38:37;3.50;99.90
13898;DHT22;7019;50.766;4.474;2022-12-07T02:41:09;3.50;99.90
13898;DHT22;7019;50.766;4.474;2022-12-07T02:43:41;3.50;99.90
13898;DHT22;7019;50.766;4.474;2022-12-07T02:46:15;3.50;99.90
13898;DHT22;7019;50.766;4.474;2022-12-07T02:48:44;3.50;99.90
13898;DHT22;7019;50.766;4.474;2022-12-07T02:51:12;3.50;99.90
13898;DHT22;7019;50.766;4.474;2022-12-07T02:53:41;3.50;99.90
13898;DHT22;7019;50.766;4.474;2022-12-07T02:56:13;3.60;99.90
13898;DHT22;7019;50.766;4.474;2022-12-07T02:58:50;3.70;99.90
13898;DHT22;7019;50.766;4.474;2022-12-07T03:01:28;3.70;99.90
13898;DHT22;7019;50.766;4.474;2022-12-07T03:04:02;3.70;99.90
13898;DHT22;7019;50.766;4.474;2022-12-07T03:06:41;3.80;99.90
13898;DHT22;7019;50.766;4.474;2022-12-07T03:09:14;3.70;99.90
13898;DHT22;7019;50.766;4.474;2022-12-07T03:11:48;3.70;99.90
13898;DHT22;7019;50.766;4.474;2022-12-07T03:14:21;3.70;99.90
13898;DHT22;7019;50.766;4.474;2022-12-07T03:16:57;3.70;99.90
13898;DHT22;7019;50.766;4.474;2022-12-07T03:19:26;3.60;99.90
13898;DHT22;7019;50.766;4.474;2022-12-07T03:21:57;3.50;99.90
13898;DHT22;7019;50.766;4.474;2022-12-07T03:24:28;3.50;99.90
13898;DHT22;7019;50.766;4.474;2022-12-07T03:27:01;3.40;99.90
13898;DHT22;7019;50.766;4.474;2022-12-07T03:29:36;3.30;99.90
13898;DHT22;7019;50.766;4.474;2022-12-07T03:32:11;3.20;99.90
13898;DHT22;7019;50.766;4.474;2022-12-07T03:34:46;3.10;99.90
13898;DHT22;7019;50.766;4.474;2022-12-07T03:37:18;3.00;99.90
13898;DHT22;7019;50.766;4.474;2022-12-07T03:39:53;2.90;99.90
13898;DHT22;7019;50.766;4.474;2022-12-07T03:42:24;2.80;99.90
13898;DHT22;7019;50.766;4.474;2022-12-07T03:44:52;2.80;99.90
13898;DHT22;7019;50.766;4.474;2022-12-07T03:47:26;2.70;99.90
13898;DHT22;7019;50.766;4.474;2022-12-07T03:49:58;2.70;99.90
13898;DHT22;7019;50.766;4.474;2022-12-07T03:52:28;2.70;99.90
13898;DHT22;7019;50.766;4.474;2022-12-07T03:55:02;2.70;99.90
13898;DHT22;7019;50.766;4.474;2022-12-07T03:57:32;2.80;99.90
13898;DHT22;7019;50.766;4.474;2022-12-07T04:00:00;2.80;99.90
13898;DHT22;7019;50.766;4.474;2022-12-07T04:02:29;2.80;99.90
13898;DHT22;7019;50.766;4.474;2022-12-07T04:04:56;2.70;99.90
13898;DHT22;7019;50.766;4.474;2022-12-07T04:07:23;2.70;99.90
13898;DHT22;7019;50.766;4.474;2022-12-07T04:09:51;2.70;99.90
13898;DHT22;7019;50.766;4.474;2022-12-07T04:12:20;2.60;99.90
13898;DHT22;7019;50.766;4.474;2022-12-07T04:14:47;2.50;99.90
13898;DHT22;7019;50.766;4.474;2022-12-07T04:17:14;2.50;99.90
13898;DHT22;7019;50.766;4.474;2022-12-07T04:19:43;2.40;99.90
13898;DHT22;7019;50.766;4.474;2022-12-07T04:22:10;2.40;99.90
13898;DHT22;7019;50.766;4.474;2022-12-07T04:24:38;2.30;99.90
13898;DHT22;7019;50.766;4.474;2022-12-07T04:27:05;2.30;99.90
13898;DHT22;7019;50.766;4.474;2022-12-07T04:29:32;2.20;99.90
13898;DHT22;7019;50.766;4.474;2022-12-07T04:31:59;2.10;99.90
13898;DHT22;7019;50.766;4.474;2022-12-07T04:34:26;2.10;99.90
13898;DHT22;7019;50.766;4.474;2022-12-07T04:36:55;2.10;99.90
13898;DHT22;7019;50.766;4.474;2022-12-07T04:39:25;2.00;99.90
13898;DHT22;7019;50.766;4.474;2022-12-07T04:41:53;2.00;99.90
13898;DHT22;7019;50.766;4.474;2022-12-07T04:44:21;2.00;99.90
13898;DHT22;7019;50.766;4.474;2022-12-07T04:46:49;2.00;99.90
13898;DHT22;7019;50.766;4.474;2022-12-07T04:49:17;2.00;99.90
13898;DHT22;7019;50.766;4.474;2022-12-07T04:51:45;2.00;99.90
13898;DHT22;7019;50.766;4.474;2022-12-07T04:54:14;2.10;99.90
13898;DHT22;7019;50.766;4.474;2022-12-07T04:56:42;2.20;99.90
13898;DHT22;7019;50.766;4.474;2022-12-07T04:59:10;2.20;99.90
13898;DHT22;7019;50.766;4.474;2022-12-07T05:01:38;2.20;99.90
13898;DHT22;7019;50.766;4.474;2022-12-07T05:04:05;2.30;99.90
13898;DHT22;7019;50.766;4.474;2022-12-07T05:06:33;2.50;99.90
13898;DHT22;7019;50.766;4.474;2022-12-07T05:09:01;2.50;99.90
13898;DHT22;7019;50.766;4.474;2022-12-07T05:11:29;2.60;99.90
13898;DHT22;7019;50.766;4.474;2022-12-07T05:14:10;2.60;99.90
13898;DHT22;7019;50.766;4.474;2022-12-07T05:16:37;2.50;99.90
13898;DHT22;7019;50.766;4.474;2022-12-07T05:19:05;2.50;99.90
13898;DHT22;7019;50.766;4.474;2022-12-07T05:21:32;2.50;99.90
13898;DHT22;7019;50.766;4.474;2022-12-07T05:24:00;2.50;99.90
13898;DHT22;7019;50.766;4.474;2022-12-07T05:26:28;2.40;99.90
13898;DHT22;7019;50.766;4.474;2022-12-07T05:28:56;2.50;99.90
13898;DHT22;7019;50.766;4.474;2022-12-07T05:31:24;2.40;99.90
13898;DHT22;7019;50.766;4.474;2022-12-07T05:33:52;2.50;99.90
13898;DHT22;7019;50.766;4.474;2022-12-07T05:36:20;2.50;99.90
13898;DHT22;7019;50.766;4.474;2022-12-07T05:38:47;2.50;99.90
13898;DHT22;7019;50.766;4.474;2022-12-07T05:41:16;2.50;99.90
13898;DHT22;7019;50.766;4.474;2022-12-07T05:44:02;2.60;99.90
13898;DHT22;7019;50.766;4.474;2022-12-07T05:46:30;2.60;99.90
13898;DHT22;7019;50.766;4.474;2022-12-07T05:48:57;2.70;99.90
13898;DHT22;7019;50.766;4.474;2022-12-07T05:51:24;2.70;99.90
13898;DHT22;7019;50.766;4.474;2022-12-07T05:53:51;2.80;99.90
13898;DHT22;7019;50.766;4.474;2022-12-07T05:56:18;2.90;99.90
13898;DHT22;7019;50.766;4.474;2022-12-07T05:58:45;2.90;99.90
13898;DHT22;7019;50.766;4.474;2022-12-07T06:01:31;2.90;99.90
13898;DHT22;7019;50.766;4.474;2022-12-07T06:03:59;3.00;99.90
13898;DHT22;7019;50.766;4.474;2022-12-07T06:06:26;3.00;99.90
13898;DHT22;7019;50.766;4.474;2022-12-07T06:08:53;3.00;99.90
13898;DHT22;7019;50.766;4.474;2022-12-07T06:11:20;3.00;99.90
13898;DHT22;7019;50.766;4.474;2022-12-07T06:14:04;3.00;99.90
13898;DHT22;7019;50.766;4.474;2022-12-07T06:16:33;3.00;99.90
13898;DHT22;7019;50.766;4.474;2022-12-07T06:19:00;3.00;99.90
13898;DHT22;7019;50.766;4.474;2022-12-07T06:21:27;2.90;99.90
13898;DHT22;7019;50.766;4.474;2022-12-07T06:23:54;2.90;99.90
13898;DHT22;7019;50.766;4.474;2022-12-07T06:26:21;2.90;99.90
13898;DHT22;7019;50.766;4.474;2022-12-07T06:28:49;2.90;99.90
13898;DHT22;7019;50.766;4.474;2022-12-07T06:31:16;2.90;99.90
13898;DHT22;7019;50.766;4.474;2022-12-07T06:33:45;2.90;99.90
13898;DHT22;7019;50.766;4.474;2022-12-07T06:36:12;2.90;99.90
13898;DHT22;7019;50.766;4.474;2022-12-07T06:38:39;2.80;99.90
13898;DHT22;7019;50.766;4.474;2022-12-07T06:41:06;2.80;99.90
13898;DHT22;7019;50.766;4.474;2022-12-07T06:43:34;2.80;99.90
13898;DHT22;7019;50.766;4.474;2022-12-07T06:46:01;2.80;99.90
13898;DHT22;7019;50.766;4.474;2022-12-07T06:48:28;2.80;99.90
13898;DHT22;7019;50.766;4.474;2022-12-07T06:50:56;2.70;99.90
13898;DHT22;7019;50.766;4.474;2022-12-07T06:53:23;2.70;99.90
13898;DHT22;7019;50.766;4.474;2022-12-07T06:55:51;2.60;99.90
13898;DHT22;7019;50.766;4.474;2022-12-07T06:58:18;2.60;99.90
13898;DHT22;7019;50.766;4.474;2022-12-07T07:00:45;2.70;99.90
13898;DHT22;7019;50.766;4.474;2022-12-07T07:03:14;2.70;99.90
13898;DHT22;7019;50.766;4.474;2022-12-07T07:05:42;2.80;99.90
13898;DHT22;7019;50.766;4.474;2022-12-07T07:08:10;2.80;99.90
13898;DHT22;7019;50.766;4.474;2022-12-07T07:10:38;2.90;99.90
13898;DHT22;7019;50.766;4.474;2022-12-07T07:13:05;2.90;99.90
13898;DHT22;7019;50.766;4.474;2022-12-07T07:15:33;3.00;99.90
13898;DHT22;7019;50.766;4.474;2022-12-07T07:18:00;3.00;99.90
13898;DHT22;7019;50.766;4.474;2022-12-07T07:20:29;3.00;99.90
13898;DHT22;7019;50.766;4.474;2022-12-07T07:22:56;3.00;99.90
13898;DHT22;7019;50.766;4.474;2022-12-07T07:25:24;3.00;99.90
13898;DHT22;7019;50.766;4.474;2022-12-07T07:27:52;3.00;99.90
13898;DHT22;7019;50.766;4.474;2022-12-07T07:30:20;3.10;99.90
13898;DHT22;7019;50.766;4.474;2022-12-07T07:32:47;3.10;99.90
13898;DHT22;7019;50.766;4.474;2022-12-07T07:35:14;3.00;99.90
13898;DHT22;7019;50.766;4.474;2022-12-07T07:37:41;2.90;99.90
13898;DHT22;7019;50.766;4.474;2022-12-07T07:40:09;2.80;99.90
13898;DHT22;7019;50.766;4.474;2022-12-07T07:42:38;2.70;99.90
13898;DHT22;7019;50.766;4.474;2022-12-07T07:45:06;2.70;99.90
13898;DHT22;7019;50.766;4.474;2022-12-07T07:47:33;2.70;99.90
13898;DHT22;7019;50.766;4.474;2022-12-07T07:50:00;2.60;99.90
13898;DHT22;7019;50.766;4.474;2022-12-07T07:52:28;2.60;99.90
13898;DHT22;7019;50.766;4.474;2022-12-07T07:54:55;2.60;99.90
13898;DHT22;7019;50.766;4.474;2022-12-07T07:57:22;2.60;99.90
13898;DHT22;7019;50.766;4.474;2022-12-07T07:59:50;2.60;99.90
13898;DHT22;7019;50.766;4.474;2022-12-07T08:02:19;2.60;99.90
13898;DHT22;7019;50.766;4.474;2022-12-07T08:04:46;2.60;99.90
13898;DHT22;7019;50.766;4.474;2022-12-07T08:07:14;2.60;99.90
13898;DHT22;7019;50.766;4.474;2022-12-07T08:09:42;2.60;99.90
13898;DHT22;7019;50.766;4.474;2022-12-07T08:12:09;2.60;99.90
13898;DHT22;7019;50.766;4.474;2022-12-07T08:14:36;2.50;99.90
13898;DHT22;7019;50.766;4.474;2022-12-07T08:17:05;2.50;99.90
13898;DHT22;7019;50.766;4.474;2022-12-07T08:19:32;2.40;99.90
13898;DHT22;7019;50.766;4.474;2022-12-07T08:22:00;2.40;99.90
13898;DHT22;7019;50.766;4.474;2022-12-07T08:24:27;2.40;99.90
13898;DHT22;7019;50.766;4.474;2022-12-07T08:26:54;2.40;99.90
13898;DHT22;7019;50.766;4.474;2022-12-07T08:29:21;2.40;99.90
13898;DHT22;7019;50.766;4.474;2022-12-07T08:31:48;2.40;99.90
13898;DHT22;7019;50.766;4.474;2022-12-07T08:34:17;2.40;99.90
13898;DHT22;7019;50.766;4.474;2022-12-07T08:36:44;2.30;99.90
13898;DHT22;7019;50.766;4.474;2022-12-07T08:39:11;2.40;99.90
13898;DHT22;7019;50.766;4.474;2022-12-07T08:41:38;2.40;99.90
13898;DHT22;7019;50.766;4.474;2022-12-07T08:44:06;2.40;99.90
13898;DHT22;7019;50.766;4.474;2022-12-07T08:46:35;2.40;99.90
13898;DHT22;7019;50.766;4.474;2022-12-07T08:49:06;2.40;99.90
13898;DHT22;7019;50.766;4.474;2022-12-07T08:51:36;2.40;99.90
13898;DHT22;7019;50.766;4.474;2022-12-07T08:54:08;2.50;99.90
13898;DHT22;7019;50.766;4.474;2022-12-07T08:56:36;2.50;99.90
13898;DHT22;7019;50.766;4.474;2022-12-07T08:59:03;2.50;99.90
13898;DHT22;7019;50.766;4.474;2022-12-07T09:01:31;2.60;99.90
13898;DHT22;7019;50.766;4.474;2022-12-07T09:03:58;2.60;99.90
13898;DHT22;7019;50.766;4.474;2022-12-07T09:06:28;2.60;99.90
13898;DHT22;7019;50.766;4.474;2022-12-07T09:08:58;2.60;99.90
13898;DHT22;7019;50.766;4.474;2022-12-07T09:11:28;2.60;99.90
13898;DHT22;7019;50.766;4.474;2022-12-07T09:13:55;2.70;99.90
13898;DHT22;7019;50.766;4.474;2022-12-07T09:16:22;2.80;99.90
13898;DHT22;7019;50.766;4.474;2022-12-07T09:18:49;2.90;99.90
13898;DHT22;7019;50.766;4.474;2022-12-07T09:21:16;3.00;99.90
13898;DHT22;7019;50.766;4.474;2022-12-07T09:23:43;3.20;99.90
13898;DHT22;7019;50.766;4.474;2022-12-07T09:26:12;3.30;99.90
13898;DHT22;7019;50.766;4.474;2022-12-07T09:28:39;3.50;99.90
13898;DHT22;7019;50.766;4.474;2022-12-07T09:31:06;3.60;99.90
13898;DHT22;7019;50.766;4.474;2022-12-07T09:33:33;3.80;99.90
13898;DHT22;7019;50.766;4.474;2022-12-07T09:36:00;4.00;99.90
13898;DHT22;7019;50.766;4.474;2022-12-07T09:38:28;4.10;99.90
13898;DHT22;7019;50.766;4.474;2022-12-07T09:40:56;4.30;99.90
13898;DHT22;7019;50.766;4.474;2022-12-07T09:43:27;4.30;99.90
13898;DHT22;7019;50.766;4.474;2022-12-07T09:46:14;4.40;99.90
13898;DHT22;7019;50.766;4.474;2022-12-07T09:48:44;4.50;99.90
13898;DHT22;7019;50.766;4.474;2022-12-07T09:51:15;4.60;99.90
13898;DHT22;7019;50.766;4.474;2022-12-07T09:53:43;4.80;99.90
13898;DHT22;7019;50.766;4.474;2022-12-07T09:56:12;4.90;99.90
13898;DHT22;7019;50.766;4.474;2022-12-07T09:58:42;5.00;99.90
13898;DHT22;7019;50.766;4.474;2022-12-07T10:01:12;5.00;99.90
13898;DHT22;7019;50.766;4.474;2022-12-07T10:03:42;5.10;99.90
13898;DHT22;7019;50.766;4.474;2022-12-07T10:06:12;5.20;99.90
13898;DHT22;7019;50.766;4.474;2022-12-07T10:08:40;5.30;99.90
13898;DHT22;7019;50.766;4.474;2022-12-07T10:11:09;5.40;99.90
13898;DHT22;7019;50.766;4.474;2022-12-07T10:13:38;5.40;99.90
13898;DHT22;7019;50.766;4.474;2022-12-07T10:16:30;5.40;99.90
13898;DHT22;7019;50.766;4.474;2022-12-07T10:19:18;5.40;99.90
13898;DHT22;7019;50.766;4.474;2022-12-07T10:22:05;5.30;99.90
13898;DHT22;7019;50.766;4.474;2022-12-07T10:24:32;5.30;99.90
13898;DHT22;7019;50.766;4.474;2022-12-07T10:29:30;5.50;99.90
13898;DHT22;7019;50.766;4.474;2022-12-07T10:32:01;5.50;99.90
13898;DHT22;7019;50.766;4.474;2022-12-07T10:34:30;5.60;99.90
13898;DHT22;7019;50.766;4.474;2022-12-07T10:37:15;5.60;99.90
13898;DHT22;7019;50.766;4.474;2022-12-07T10:39:44;5.60;99.90
13898;DHT22;7019;50.766;4.474;2022-12-07T10:42:19;5.60;99.90
13898;DHT22;7019;50.766;4.474;2022-12-07T10:44:48;5.50;99.90
13898;DHT22;7019;50.766;4.474;2022-12-07T10:47:29;5.50;99.90
13898;DHT22;7019;50.766;4.474;2022-12-07T10:50:17;5.50;99.90
13898;DHT22;7019;50.766;4.474;2022-12-07T10:53:12;5.50;99.90
13898;DHT22;7019;50.766;4.474;2022-12-07T10:56:02;5.40;99.90
13898;DHT22;7019;50.766;4.474;2022-12-07T10:58:51;5.50;99.90
13898;DHT22;7019;50.766;4.474;2022-12-07T11:01:25;5.50;99.90
13898;DHT22;7019;50.766;4.474;2022-12-07T11:04:17;5.60;99.90
13898;DHT22;7019;50.766;4.474;2022-12-07T11:06:51;5.80;99.90
13898;DHT22;7019;50.766;4.474;2022-12-07T11:09:57;5.80;99.90
13898;DHT22;7019;50.766;4.474;2022-12-07T11:12:38;5.80;99.90
13898;DHT22;7019;50.766;4.474;2022-12-07T11:15:16;5.70;99.90
13898;DHT22;7019;50.766;4.474;2022-12-07T11:17:51;5.70;99.90
13898;DHT22;7019;50.766;4.474;2022-12-07T11:20:37;5.70;99.90
13898;DHT22;7019;50.766;4.474;2022-12-07T11:23:14;5.70;99.90
13898;DHT22;7019;50.766;4.474;2022-12-07T11:25:49;5.80;99.90
13898;DHT22;7019;50.766;4.474;2022-12-07T11:28:30;5.90;99.90
13898;DHT22;7019;50.766;4.474;2022-12-07T11:31:08;5.90;99.90
13898;DHT22;7019;50.766;4.474;2022-12-07T11:33:43;6.00;99.90
13898;DHT22;7019;50.766;4.474;2022-12-07T11:36:30;6.00;99.90
13898;DHT22;7019;50.766;4.474;2022-12-07T11:39:02;6.10;99.90
13898;DHT22;7019;50.766;4.474;2022-12-07T11:41:33;6.00;99.90
13898;DHT22;7019;50.766;4.474;2022-12-07T11:44:06;5.90;99.90
13898;DHT22;7019;50.766;4.474;2022-12-07T11:46:45;5.90;99.90
13898;DHT22;7019;50.766;4.474;2022-12-07T11:49:20;5.80;99.90
13898;DHT22;7019;50.766;4.474;2022-12-07T11:51:53;5.60;99.90
13898;DHT22;7019;50.766;4.474;2022-12-07T11:54:26;5.50;99.90
13898;DHT22;7019;50.766;4.474;2022-12-07T11:57:01;5.30;99.90
13898;DHT22;7019;50.766;4.474;2022-12-07T11:59:36;5.20;99.90
13898;DHT22;7019;50.766;4.474;2022-12-07T12:02:12;5.10;99.90
13898;DHT22;7019;50.766;4.474;2022-12-07T12:04:49;5.10;99.90
13898;DHT22;7019;50.766;4.474;2022-12-07T12:07:22;5.10;99.90
13898;DHT22;7019;50.766;4.474;2022-12-07T12:09:52;5.10;99.90
13898;DHT22;7019;50.766;4.474;2022-12-07T12:12:32;5.10;99.90
13898;DHT22;7019;50.766;4.474;2022-12-07T12:15:18;5.10;99.90
13898;DHT22;7019;50.766;4.474;2022-12-07T12:18:01;5.10;99.90
13898;DHT22;7019;50.766;4.474;2022-12-07T12:20:37;5.00;99.90
13898;DHT22;7019;50.766;4.474;2022-12-07T12:23:10;5.10;99.90
13898;DHT22;7019;50.766;4.474;2022-12-07T12:25:42;5.10;99.90
13898;DHT22;7019;50.766;4.474;2022-12-07T12:28:22;5.20;99.90
13898;DHT22;7019;50.766;4.474;2022-12-07T12:31:05;5.40;99.90
13898;DHT22;7019;50.766;4.474;2022-12-07T12:33:33;5.50;99.90
13898;DHT22;7019;50.766;4.474;2022-12-07T12:36:25;5.50;99.90
13898;DHT22;7019;50.766;4.474;2022-12-07T12:39:10;5.60;99.90
13898;DHT22;7019;50.766;4.474;2022-12-07T12:41:59;5.60;99.90
13898;DHT22;7019;50.766;4.474;2022-12-07T12:44:41;5.70;99.90
13898;DHT22;7019;50.766;4.474;2022-12-07T12:50:30;5.60;99.90
13898;DHT22;7019;50.766;4.474;2022-12-07T12:53:04;5.70;99.90
13898;DHT22;7019;50.766;4.474;2022-12-07T12:58:44;5.70;99.90
13898;DHT22;7019;50.766;4.474;2022-12-07T13:01:35;5.70;99.90
13898;DHT22;7019;50.766;4.474;2022-12-07T13:04:21;5.60;99.90
13898;DHT22;7019;50.766;4.474;2022-12-07T13:06:51;5.50;99.90
13898;DHT22;7019;50.766;4.474;2022-12-07T13:09:23;5.40;99.90
13898;DHT22;7019;50.766;4.474;2022-12-07T13:11:58;5.40;99.90
13898;DHT22;7019;50.766;4.474;2022-12-07T13:23:37;5.70;99.90
13898;DHT22;7019;50.766;4.474;2022-12-07T13:26:13;5.80;99.90
13898;DHT22;7019;50.766;4.474;2022-12-07T13:28:43;5.90;99.90
13898;DHT22;7019;50.766;4.474;2022-12-07T13:33:56;5.90;99.90
13898;DHT22;7019;50.766;4.474;2022-12-07T13:36:25;5.80;99.90
13898;DHT22;7019;50.766;4.474;2022-12-07T13:38:55;5.80;99.90
13898;DHT22;7019;50.766;4.474;2022-12-07T13:41:24;5.70;99.90
13898;DHT22;7019;50.766;4.474;2022-12-07T13:43:55;5.70;99.90
13898;DHT22;7019;50.766;4.474;2022-12-07T13:46:34;5.60;99.90
13898;DHT22;7019;50.766;4.474;2022-12-07T13:49:02;5.60;99.90
13898;DHT22;7019;50.766;4.474;2022-12-07T13:51:34;5.60;99.90
13898;DHT22;7019;50.766;4.474;2022-12-07T13:54:10;5.70;99.90
13898;DHT22;7019;50.766;4.474;2022-12-07T13:56:38;5.70;99.90
13898;DHT22;7019;50.766;4.474;2022-12-07T13:59:13;5.80;99.90
13898;DHT22;7019;50.766;4.474;2022-12-07T14:01:41;5.80;99.90
13898;DHT22;7019;50.766;4.474;2022-12-07T14:04:33;5.80;99.90
13898;DHT22;7019;50.766;4.474;2022-12-07T14:07:16;5.80;99.90
13898;DHT22;7019;50.766;4.474;2022-12-07T14:09:56;5.70;99.90
13898;DHT22;7019;50.766;4.474;2022-12-07T14:12:25;5.70;99.90
13898;DHT22;7019;50.766;4.474;2022-12-07T14:14:59;5.60;99.90
13898;DHT22;7019;50.766;4.474;2022-12-07T14:17:27;5.60;99.90
13898;DHT22;7019;50.766;4.474;2022-12-07T14:19:55;5.50;99.90
13898;DHT22;7019;50.766;4.474;2022-12-07T14:22:26;5.50;99.90
13898;DHT22;7019;50.766;4.474;2022-12-07T14:25:15;5.60;99.90
13898;DHT22;7019;50.766;4.474;2022-12-07T14:27:50;5.60;99.90
13898;DHT22;7019;50.766;4.474;2022-12-07T14:30:19;5.60;99.90
13898;DHT22;7019;50.766;4.474;2022-12-07T14:32:49;5.60;99.90
13898;DHT22;7019;50.766;4.474;2022-12-07T14:37:47;5.50;99.90
13898;DHT22;7019;50.766;4.474;2022-12-07T14:40:18;5.50;99.90
13898;DHT22;7019;50.766;4.474;2022-12-07T14:42:47;5.50;99.90
13898;DHT22;7019;50.766;4.474;2022-12-07T14:45:17;5.50;99.90
13898;DHT22;7019;50.766;4.474;2022-12-07T14:47:44;5.40;99.90
13898;DHT22;7019;50.766;4.474;2022-12-07T14:50:12;5.40;99.90
13898;DHT22;7019;50.766;4.474;2022-12-07T14:52:40;5.30;99.90
13898;DHT22;7019;50.766;4.474;2022-12-07T14:55:16;5.30;99.90
13898;DHT22;7019;50.766;4.474;2022-12-07T14:57:46;5.30;99.90
13898;DHT22;7019;50.766;4.474;2022-12-07T15:00:15;5.30;99.90
13898;DHT22;7019;50.766;4.474;2022-12-07T15:02:43;5.30;99.90
13898;DHT22;7019;50.766;4.474;2022-12-07T15:05:11;5.20;99.90
13898;DHT22;7019;50.766;4.474;2022-12-07T15:07:39;5.10;99.90
13898;DHT22;7019;50.766;4.474;2022-12-07T15:10:09;5.10;99.90
13898;DHT22;7019;50.766;4.474;2022-12-07T15:12:41;5.00;99.90
13898;DHT22;7019;50.766;4.474;2022-12-07T15:15:09;5.00;99.90
13898;DHT22;7019;50.766;4.474;2022-12-07T15:17:36;4.90;99.90
13898;DHT22;7019;50.766;4.474;2022-12-07T15:20:09;4.90;99.90
13898;DHT22;7019;50.766;4.474;2022-12-07T15:22:38;4.80;99.90
13898;DHT22;7019;50.766;4.474;2022-12-07T15:25:06;4.80;99.90
13898;DHT22;7019;50.766;4.474;2022-12-07T15:27:33;4.80;99.90
13898;DHT22;7019;50.766;4.474;2022-12-07T15:30:02;4.70;99.90
13898;DHT22;7019;50.766;4.474;2022-12-07T15:32:30;4.70;99.90
13898;DHT22;7019;50.766;4.474;2022-12-07T15:34:57;4.70;99.90
13898;DHT22;7019;50.766;4.474;2022-12-07T15:40:53;4.60;99.90
13898;DHT22;7019;50.766;4.474;2022-12-07T15:43:37;4.50;99.90
13898;DHT22;7019;50.766;4.474;2022-12-07T15:46:23;4.50;99.90
13898;DHT22;7019;50.766;4.474;2022-12-07T15:48:53;4.50;99.90
13898;DHT22;7019;50.766;4.474;2022-12-07T15:51:20;4.40;99.90
13898;DHT22;7019;50.766;4.474;2022-12-07T15:53:47;4.40;99.90
13898;DHT22;7019;50.766;4.474;2022-12-07T15:56:14;4.40;99.90
13898;DHT22;7019;50.766;4.474;2022-12-07T15:58:43;4.40;99.90
13898;DHT22;7019;50.766;4.474;2022-12-07T16:01:11;4.40;99.90
13898;DHT22;7019;50.766;4.474;2022-12-07T16:03:40;4.50;99.90
13898;DHT22;7019;50.766;4.474;2022-12-07T16:06:07;4.50;99.90
13898;DHT22;7019;50.766;4.474;2022-12-07T16:08:34;4.50;99.90
13898;DHT22;7019;50.766;4.474;2022-12-07T16:11:05;4.50;99.90
13898;DHT22;7019;50.766;4.474;2022-12-07T16:13:34;4.50;99.90
13898;DHT22;7019;50.766;4.474;2022-12-07T16:16:03;4.50;99.90
13898;DHT22;7019;50.766;4.474;2022-12-07T16:18:30;4.50;99.90
13898;DHT22;7019;50.766;4.474;2022-12-07T16:20:59;4.50;99.90
13898;DHT22;7019;50.766;4.474;2022-12-07T16:23:27;4.50;99.90
13898;DHT22;7019;50.766;4.474;2022-12-07T16:25:54;4.50;99.90
13898;DHT22;7019;50.766;4.474;2022-12-07T16:28:22;4.50;99.90
13898;DHT22;7019;50.766;4.474;2022-12-07T16:30:49;4.40;99.90
13898;DHT22;7019;50.766;4.474;2022-12-07T16:33:26;4.40;99.90
13898;DHT22;7019;50.766;4.474;2022-12-07T16:35:53;4.40;99.90
13898;DHT22;7019;50.766;4.474;2022-12-07T16:38:22;4.40;99.90
13898;DHT22;7019;50.766;4.474;2022-12-07T16:40:49;4.40;99.90
13898;DHT22;7019;50.766;4.474;2022-12-07T16:43:16;4.40;99.90
13898;DHT22;7019;50.766;4.474;2022-12-07T16:45:45;4.30;99.90
13898;DHT22;7019;50.766;4.474;2022-12-07T16:48:13;4.30;99.90
13898;DHT22;7019;50.766;4.474;2022-12-07T16:50:41;4.30;99.90
13898;DHT22;7019;50.766;4.474;2022-12-07T16:53:09;4.30;99.90
13898;DHT22;7019;50.766;4.474;2022-12-07T16:55:39;4.30;99.90
13898;DHT22;7019;50.766;4.474;2022-12-07T16:58:07;4.20;99.90